Calgary Springbank Airport
CYBW : rendu visible

Aérodrome :











RETROUVEZ-NOUS SUR...

 
LOGIN :

S'inscrire | Disclaimer

   EN    FR    IT 

 









Légende :    VFR   VFR Marginal   IFR   IFR Intensif   IFR Très Intensif
Visi : 
Plafond : 
>= 8 km
>= 3000ft
5 à 8 km
1000 à 3000 ft
1500m à 5 km
500 à 1000 ft
800 à 1500m
200 à 500 ft
< 800m
< 200 ft
Symboles :   Orages  Brouillard  Fortes neiges  Fortes précipitations  Vent > 20 kt






- Altitude de l'aérodrome : 3937 ft
- Code IATA : YBW


CYBW - Calgary Springbank

DERNIER METAR :
  • 261600Z AUTO 03021KT 9SM BKN080 BKN170 12/06 A2985 RMK SLP119 DENSITY ALT 4500FT

METARs EXPIRÉS :
  • 261540Z AUTO 01015G20KT 9SM BKN090 BKN170 14/04 A2985 RMK SLP112 DENSITY ALT 4800FT
  • 261500Z AUTO 36005KT 9SM BKN170 14/03 A2985 RMK SLP113 DENSITY ALT 4700FT
  • 261400Z AUTO 33007KT 9SM CLR 11/03 A2985 RMK SLP117 DENSITY ALT 4400FT

TAF AMD TAF CYBW
Valide du 26 à 16h jusqu'au 27 à 00h UTC


261606Z 2616/2624 33015G25KT P6SM SCT080 BKN170
TEMPO 2616/2617 02018G28KT BKN080 BKN170
FM261700 33015G25KT P6SM SCT050 BKN080
TEMPO 2617/2624 VRB20G30KT P6SM -SHRA VCTS OVC050CB RMK FCST BASED ON AUTO OBS. NXT FCST BY 261800Z
FIR CZEG / Amérique du Nord



MET'MAP, la Météo Aéronautique d'un coup d'oeil ! - Copyright ORBIFLY Décembre 2007 - Disclaimer

ORBIFLY MET'MAP TEAM :

Programmation & Développement : Alexandra Zaïnal
Sur une idée originale de : Baudouin d'Aumeries
Assistance à la programmation : Marc-Olivier Méhu
Soutien technique & logistique : Manuel Goepfert

Contact : metmap@orbifly.com




SOURCES & CREDITS :

   NOAA       Earth
Advisory